sensor_id;sensor_type;location;lat;lon;timestamp;pressure;altitude;pressure_sealevel;temperature
12875;BMP180;6505;51.114;13.128;2022-12-24T00:00:10;98234.00;;;15.80
12875;BMP180;6505;51.114;13.128;2022-12-24T00:02:41;98236.00;;;15.90
12875;BMP180;6505;51.114;13.128;2022-12-24T00:05:12;98244.00;;;15.90
12875;BMP180;6505;51.114;13.128;2022-12-24T00:07:40;98247.00;;;15.90
12875;BMP180;6505;51.114;13.128;2022-12-24T00:10:11;98251.00;;;15.90
12875;BMP180;6505;51.114;13.128;2022-12-24T00:12:39;98267.00;;;15.90
12875;BMP180;6505;51.114;13.128;2022-12-24T00:15:09;98249.00;;;15.90
12875;BMP180;6505;51.114;13.128;2022-12-24T00:17:37;98246.00;;;15.90
12875;BMP180;6505;51.114;13.128;2022-12-24T00:20:39;98239.00;;;15.90
12875;BMP180;6505;51.114;13.128;2022-12-24T00:23:08;98241.00;;;15.90
12875;BMP180;6505;51.114;13.128;2022-12-24T00:25:36;98249.00;;;16.00
12875;BMP180;6505;51.114;13.128;2022-12-24T00:28:05;98247.00;;;15.90
12875;BMP180;6505;51.114;13.128;2022-12-24T00:30:33;98257.00;;;16.00
12875;BMP180;6505;51.114;13.128;2022-12-24T00:33:10;98252.00;;;16.00
12875;BMP180;6505;51.114;13.128;2022-12-24T00:35:40;98254.00;;;16.00
12875;BMP180;6505;51.114;13.128;2022-12-24T00:38:09;98255.00;;;16.00
12875;BMP180;6505;51.114;13.128;2022-12-24T00:40:37;98253.00;;;16.00
12875;BMP180;6505;51.114;13.128;2022-12-24T00:43:05;98253.00;;;16.00
12875;BMP180;6505;51.114;13.128;2022-12-24T00:45:33;98247.00;;;16.00
12875;BMP180;6505;51.114;13.128;2022-12-24T00:48:03;98260.00;;;16.00
12875;BMP180;6505;51.114;13.128;2022-12-24T00:50:49;98260.00;;;16.00
12875;BMP180;6505;51.114;13.128;2022-12-24T00:53:19;98256.00;;;16.00
12875;BMP180;6505;51.114;13.128;2022-12-24T00:55:49;98260.00;;;16.00
12875;BMP180;6505;51.114;13.128;2022-12-24T00:58:16;98253.00;;;16.00
12875;BMP180;6505;51.114;13.128;2022-12-24T01:00:44;98268.00;;;16.00
12875;BMP180;6505;51.114;13.128;2022-12-24T01:03:12;98284.00;;;16.00
12875;BMP180;6505;51.114;13.128;2022-12-24T01:05:41;98287.00;;;16.00
12875;BMP180;6505;51.114;13.128;2022-12-24T01:08:09;98292.00;;;16.00
12875;BMP180;6505;51.114;13.128;2022-12-24T01:10:37;98301.00;;;16.00
12875;BMP180;6505;51.114;13.128;2022-12-24T01:13:07;98283.00;;;16.00
12875;BMP180;6505;51.114;13.128;2022-12-24T01:15:36;98303.00;;;16.00
12875;BMP180;6505;51.114;13.128;2022-12-24T01:18:05;98293.00;;;16.00
12875;BMP180;6505;51.114;13.128;2022-12-24T01:20:36;98304.00;;;16.00
12875;BMP180;6505;51.114;13.128;2022-12-24T01:23:05;98311.00;;;16.00
12875;BMP180;6505;51.114;13.128;2022-12-24T01:25:39;98319.00;;;16.00
12875;BMP180;6505;51.114;13.128;2022-12-24T01:28:07;98313.00;;;16.00
12875;BMP180;6505;51.114;13.128;2022-12-24T01:30:40;98321.00;;;16.00
12875;BMP180;6505;51.114;13.128;2022-12-24T01:33:08;98319.00;;;16.00
12875;BMP180;6505;51.114;13.128;2022-12-24T01:35:40;98314.00;;;16.00
12875;BMP180;6505;51.114;13.128;2022-12-24T01:38:11;98319.00;;;16.00
12875;BMP180;6505;51.114;13.128;2022-12-24T01:40:44;98321.00;;;16.00
12875;BMP180;6505;51.114;13.128;2022-12-24T01:43:32;98327.00;;;16.00
12875;BMP180;6505;51.114;13.128;2022-12-24T01:46:02;98321.00;;;16.00
12875;BMP180;6505;51.114;13.128;2022-12-24T01:48:40;98322.00;;;16.00
12875;BMP180;6505;51.114;13.128;2022-12-24T01:51:19;98314.00;;;15.90
12875;BMP180;6505;51.114;13.128;2022-12-24T01:54:00;98332.00;;;16.00
12875;BMP180;6505;51.114;13.128;2022-12-24T01:56:44;98321.00;;;16.00
12875;BMP180;6505;51.114;13.128;2022-12-24T01:59:18;98351.00;;;16.00
12875;BMP180;6505;51.114;13.128;2022-12-24T02:01:50;98357.00;;;16.00
12875;BMP180;6505;51.114;13.128;2022-12-24T02:04:31;98353.00;;;15.90
12875;BMP180;6505;51.114;13.128;2022-12-24T02:07:00;98353.00;;;16.00
12875;BMP180;6505;51.114;13.128;2022-12-24T02:09:43;98354.00;;;16.00
12875;BMP180;6505;51.114;13.128;2022-12-24T02:12:17;98365.00;;;16.00
12875;BMP180;6505;51.114;13.128;2022-12-24T02:14:47;98366.00;;;16.00
12875;BMP180;6505;51.114;13.128;2022-12-24T02:21:57;98365.00;;;15.90
12875;BMP180;6505;51.114;13.128;2022-12-24T02:27:56;98369.00;;;15.90
12875;BMP180;6505;51.114;13.128;2022-12-24T02:30:36;98370.00;;;15.90
12875;BMP180;6505;51.114;13.128;2022-12-24T02:33:22;98385.00;;;15.90
12875;BMP180;6505;51.114;13.128;2022-12-24T02:35:59;98385.00;;;15.90
12875;BMP180;6505;51.114;13.128;2022-12-24T02:38:38;98386.00;;;15.90
12875;BMP180;6505;51.114;13.128;2022-12-24T02:41:18;98392.00;;;15.90
12875;BMP180;6505;51.114;13.128;2022-12-24T02:43:52;98397.00;;;15.90
12875;BMP180;6505;51.114;13.128;2022-12-24T02:46:29;98400.00;;;15.90
12875;BMP180;6505;51.114;13.128;2022-12-24T02:48:59;98405.00;;;16.00
12875;BMP180;6505;51.114;13.128;2022-12-24T02:51:27;98402.00;;;16.00
12875;BMP180;6505;51.114;13.128;2022-12-24T02:53:56;98388.00;;;16.00
12875;BMP180;6505;51.114;13.128;2022-12-24T02:56:44;98409.00;;;15.90
12875;BMP180;6505;51.114;13.128;2022-12-24T02:59:44;98420.00;;;15.90
12875;BMP180;6505;51.114;13.128;2022-12-24T03:02:34;98426.00;;;15.90
12875;BMP180;6505;51.114;13.128;2022-12-24T03:05:21;98427.00;;;15.90
12875;BMP180;6505;51.114;13.128;2022-12-24T03:08:01;98431.00;;;15.90
12875;BMP180;6505;51.114;13.128;2022-12-24T03:10:46;98422.00;;;15.90
12875;BMP180;6505;51.114;13.128;2022-12-24T03:13:19;98439.00;;;16.00
12875;BMP180;6505;51.114;13.128;2022-12-24T03:15:51;98430.00;;;16.00
12875;BMP180;6505;51.114;13.128;2022-12-24T03:18:26;98434.00;;;15.90
12875;BMP180;6505;51.114;13.128;2022-12-24T03:21:08;98439.00;;;15.90
12875;BMP180;6505;51.114;13.128;2022-12-24T03:23:38;98438.00;;;16.00
12875;BMP180;6505;51.114;13.128;2022-12-24T03:26:11;98443.00;;;16.00
12875;BMP180;6505;51.114;13.128;2022-12-24T03:28:44;98451.00;;;16.00
12875;BMP180;6505;51.114;13.128;2022-12-24T03:31:18;98446.00;;;16.00
12875;BMP180;6505;51.114;13.128;2022-12-24T03:33:50;98447.00;;;16.00
12875;BMP180;6505;51.114;13.128;2022-12-24T03:36:21;98434.00;;;16.00
12875;BMP180;6505;51.114;13.128;2022-12-24T03:38:53;98443.00;;;16.00
12875;BMP180;6505;51.114;13.128;2022-12-24T03:41:20;98453.00;;;16.00
12875;BMP180;6505;51.114;13.128;2022-12-24T03:43:48;98462.00;;;16.00
12875;BMP180;6505;51.114;13.128;2022-12-24T03:46:17;98462.00;;;16.10
12875;BMP180;6505;51.114;13.128;2022-12-24T03:48:45;98470.00;;;16.00
12875;BMP180;6505;51.114;13.128;2022-12-24T03:51:24;98476.00;;;16.00
12875;BMP180;6505;51.114;13.128;2022-12-24T03:53:55;98471.00;;;16.00
12875;BMP180;6505;51.114;13.128;2022-12-24T03:56:25;98471.00;;;16.00
12875;BMP180;6505;51.114;13.128;2022-12-24T03:58:54;98479.00;;;16.10
12875;BMP180;6505;51.114;13.128;2022-12-24T04:01:22;98486.00;;;16.00
12875;BMP180;6505;51.114;13.128;2022-12-24T04:03:50;98486.00;;;16.00
12875;BMP180;6505;51.114;13.128;2022-12-24T04:06:22;98488.00;;;16.00
12875;BMP180;6505;51.114;13.128;2022-12-24T04:08:51;98494.00;;;16.00
12875;BMP180;6505;51.114;13.128;2022-12-24T04:11:19;98506.00;;;16.00
12875;BMP180;6505;51.114;13.128;2022-12-24T04:13:47;98502.00;;;16.00
12875;BMP180;6505;51.114;13.128;2022-12-24T04:16:18;98511.00;;;16.00
12875;BMP180;6505;51.114;13.128;2022-12-24T04:18:48;98507.00;;;16.00
12875;BMP180;6505;51.114;13.128;2022-12-24T04:21:21;98519.00;;;16.00
12875;BMP180;6505;51.114;13.128;2022-12-24T04:23:51;98529.00;;;16.10
12875;BMP180;6505;51.114;13.128;2022-12-24T04:26:19;98524.00;;;16.00
12875;BMP180;6505;51.114;13.128;2022-12-24T04:28:47;98534.00;;;16.10
12875;BMP180;6505;51.114;13.128;2022-12-24T04:31:16;98547.00;;;16.10
12875;BMP180;6505;51.114;13.128;2022-12-24T04:33:45;98543.00;;;16.10
12875;BMP180;6505;51.114;13.128;2022-12-24T04:36:18;98544.00;;;16.00
12875;BMP180;6505;51.114;13.128;2022-12-24T04:38:48;98545.00;;;16.10
12875;BMP180;6505;51.114;13.128;2022-12-24T04:41:19;98546.00;;;16.00
12875;BMP180;6505;51.114;13.128;2022-12-24T04:43:52;98564.00;;;16.10
12875;BMP180;6505;51.114;13.128;2022-12-24T04:46:23;98552.00;;;16.10
12875;BMP180;6505;51.114;13.128;2022-12-24T04:48:55;98568.00;;;16.10
12875;BMP180;6505;51.114;13.128;2022-12-24T04:51:28;98564.00;;;16.10
12875;BMP180;6505;51.114;13.128;2022-12-24T04:53:57;98573.00;;;16.10
12875;BMP180;6505;51.114;13.128;2022-12-24T04:56:30;98577.00;;;16.10
12875;BMP180;6505;51.114;13.128;2022-12-24T04:59:00;98576.00;;;16.10
12875;BMP180;6505;51.114;13.128;2022-12-24T05:01:31;98573.00;;;16.10
12875;BMP180;6505;51.114;13.128;2022-12-24T05:04:01;98581.00;;;16.10
12875;BMP180;6505;51.114;13.128;2022-12-24T05:06:32;98580.00;;;16.10
12875;BMP180;6505;51.114;13.128;2022-12-24T05:09:01;98599.00;;;16.00
12875;BMP180;6505;51.114;13.128;2022-12-24T05:11:30;98603.00;;;16.10
12875;BMP180;6505;51.114;13.128;2022-12-24T05:14:01;98611.00;;;16.10
12875;BMP180;6505;51.114;13.128;2022-12-24T05:16:29;98601.00;;;16.10
12875;BMP180;6505;51.114;13.128;2022-12-24T05:18:59;98619.00;;;16.10
12875;BMP180;6505;51.114;13.128;2022-12-24T05:21:29;98624.00;;;16.10
12875;BMP180;6505;51.114;13.128;2022-12-24T05:23:57;98631.00;;;16.10
12875;BMP180;6505;51.114;13.128;2022-12-24T05:26:48;98629.00;;;16.10
12875;BMP180;6505;51.114;13.128;2022-12-24T05:29:18;98628.00;;;16.10
12875;BMP180;6505;51.114;13.128;2022-12-24T05:31:47;98641.00;;;16.10
12875;BMP180;6505;51.114;13.128;2022-12-24T05:34:16;98624.00;;;16.10
12875;BMP180;6505;51.114;13.128;2022-12-24T05:36:46;98638.00;;;16.10
12875;BMP180;6505;51.114;13.128;2022-12-24T05:39:16;98636.00;;;16.10
12875;BMP180;6505;51.114;13.128;2022-12-24T05:41:47;98649.00;;;16.10
12875;BMP180;6505;51.114;13.128;2022-12-24T05:44:16;98648.00;;;16.10
12875;BMP180;6505;51.114;13.128;2022-12-24T05:46:44;98652.00;;;16.10
12875;BMP180;6505;51.114;13.128;2022-12-24T05:49:14;98656.00;;;16.10
12875;BMP180;6505;51.114;13.128;2022-12-24T05:51:42;98656.00;;;16.10
12875;BMP180;6505;51.114;13.128;2022-12-24T05:54:11;98661.00;;;16.10
12875;BMP180;6505;51.114;13.128;2022-12-24T05:56:54;98662.00;;;16.10
12875;BMP180;6505;51.114;13.128;2022-12-24T05:59:24;98673.00;;;16.10
12875;BMP180;6505;51.114;13.128;2022-12-24T06:01:51;98690.00;;;16.10
12875;BMP180;6505;51.114;13.128;2022-12-24T06:04:23;98694.00;;;16.10
12875;BMP180;6505;51.114;13.128;2022-12-24T06:06:55;98708.00;;;16.10
12875;BMP180;6505;51.114;13.128;2022-12-24T06:09:23;98699.00;;;16.10
12875;BMP180;6505;51.114;13.128;2022-12-24T06:11:50;98709.00;;;16.10
12875;BMP180;6505;51.114;13.128;2022-12-24T06:14:23;98710.00;;;16.10
12875;BMP180;6505;51.114;13.128;2022-12-24T06:16:50;98712.00;;;16.10
12875;BMP180;6505;51.114;13.128;2022-12-24T06:19:18;98710.00;;;16.10
12875;BMP180;6505;51.114;13.128;2022-12-24T06:21:46;98711.00;;;16.10
12875;BMP180;6505;51.114;13.128;2022-12-24T06:24:16;98709.00;;;16.10
12875;BMP180;6505;51.114;13.128;2022-12-24T06:26:44;98722.00;;;16.10
12875;BMP180;6505;51.114;13.128;2022-12-24T06:29:12;98730.00;;;16.10
12875;BMP180;6505;51.114;13.128;2022-12-24T06:31:45;98741.00;;;16.10
12875;BMP180;6505;51.114;13.128;2022-12-24T06:34:13;98746.00;;;16.10
12875;BMP180;6505;51.114;13.128;2022-12-24T06:36:41;98737.00;;;16.10
12875;BMP180;6505;51.114;13.128;2022-12-24T06:39:09;98743.00;;;16.10
12875;BMP180;6505;51.114;13.128;2022-12-24T06:41:39;98758.00;;;16.10
12875;BMP180;6505;51.114;13.128;2022-12-24T06:44:10;98748.00;;;16.10
12875;BMP180;6505;51.114;13.128;2022-12-24T06:46:45;98753.00;;;16.10
12875;BMP180;6505;51.114;13.128;2022-12-24T06:49:13;98763.00;;;16.10
12875;BMP180;6505;51.114;13.128;2022-12-24T06:51:42;98766.00;;;16.10
12875;BMP180;6505;51.114;13.128;2022-12-24T06:54:10;98781.00;;;16.10
12875;BMP180;6505;51.114;13.128;2022-12-24T06:56:38;98781.00;;;16.10
12875;BMP180;6505;51.114;13.128;2022-12-24T06:59:06;98778.00;;;16.20
12875;BMP180;6505;51.114;13.128;2022-12-24T07:01:36;98785.00;;;16.10
12875;BMP180;6505;51.114;13.128;2022-12-24T07:04:05;98779.00;;;16.10
12875;BMP180;6505;51.114;13.128;2022-12-24T07:06:45;98781.00;;;16.10
12875;BMP180;6505;51.114;13.128;2022-12-24T07:09:14;98787.00;;;16.10
12875;BMP180;6505;51.114;13.128;2022-12-24T07:11:42;98808.00;;;16.10
12875;BMP180;6505;51.114;13.128;2022-12-24T07:14:13;98810.00;;;16.10
12875;BMP180;6505;51.114;13.128;2022-12-24T07:16:43;98809.00;;;16.20
12875;BMP180;6505;51.114;13.128;2022-12-24T07:19:16;98815.00;;;16.10
12875;BMP180;6505;51.114;13.128;2022-12-24T07:21:44;98827.00;;;16.20
12875;BMP180;6505;51.114;13.128;2022-12-24T07:24:16;98838.00;;;16.10
12875;BMP180;6505;51.114;13.128;2022-12-24T07:26:44;98819.00;;;16.10
12875;BMP180;6505;51.114;13.128;2022-12-24T07:29:13;98835.00;;;16.10
12875;BMP180;6505;51.114;13.128;2022-12-24T07:31:41;98850.00;;;16.20
12875;BMP180;6505;51.114;13.128;2022-12-24T07:34:15;98845.00;;;16.10
12875;BMP180;6505;51.114;13.128;2022-12-24T07:36:43;98858.00;;;16.20
12875;BMP180;6505;51.114;13.128;2022-12-24T07:39:10;98854.00;;;16.20
12875;BMP180;6505;51.114;13.128;2022-12-24T07:41:38;98861.00;;;16.20
12875;BMP180;6505;51.114;13.128;2022-12-24T07:44:14;98865.00;;;16.10
12875;BMP180;6505;51.114;13.128;2022-12-24T07:46:43;98862.00;;;16.20
12875;BMP180;6505;51.114;13.128;2022-12-24T07:49:14;98861.00;;;16.20
12875;BMP180;6505;51.114;13.128;2022-12-24T07:51:42;98873.00;;;16.20
12875;BMP180;6505;51.114;13.128;2022-12-24T07:54:13;98872.00;;;16.20
12875;BMP180;6505;51.114;13.128;2022-12-24T07:56:43;98875.00;;;16.20
12875;BMP180;6505;51.114;13.128;2022-12-24T07:59:12;98875.00;;;16.10
12875;BMP180;6505;51.114;13.128;2022-12-24T08:01:41;98882.00;;;16.10
12875;BMP180;6505;51.114;13.128;2022-12-24T08:04:12;98890.00;;;16.10
12875;BMP180;6505;51.114;13.128;2022-12-24T08:06:41;98892.00;;;16.10
12875;BMP180;6505;51.114;13.128;2022-12-24T08:09:13;98896.00;;;16.10
12875;BMP180;6505;51.114;13.128;2022-12-24T08:11:42;98899.00;;;16.10
12875;BMP180;6505;51.114;13.128;2022-12-24T08:14:19;98902.00;;;16.10
12875;BMP180;6505;51.114;13.128;2022-12-24T08:16:47;98894.00;;;16.10
12875;BMP180;6505;51.114;13.128;2022-12-24T08:19:15;98904.00;;;16.10
12875;BMP180;6505;51.114;13.128;2022-12-24T08:21:44;98903.00;;;16.10
12875;BMP180;6505;51.114;13.128;2022-12-24T08:24:12;98912.00;;;16.10
12875;BMP180;6505;51.114;13.128;2022-12-24T08:26:41;98918.00;;;16.10
12875;BMP180;6505;51.114;13.128;2022-12-24T08:29:09;98910.00;;;16.10
12875;BMP180;6505;51.114;13.128;2022-12-24T08:31:52;98920.00;;;16.10
12875;BMP180;6505;51.114;13.128;2022-12-24T08:34:20;98925.00;;;16.10
12875;BMP180;6505;51.114;13.128;2022-12-24T08:36:52;98922.00;;;16.10
12875;BMP180;6505;51.114;13.128;2022-12-24T08:39:20;98932.00;;;16.10
12875;BMP180;6505;51.114;13.128;2022-12-24T08:41:50;98941.00;;;16.10
12875;BMP180;6505;51.114;13.128;2022-12-24T08:44:18;98945.00;;;16.10
12875;BMP180;6505;51.114;13.128;2022-12-24T08:46:49;98947.00;;;16.10
12875;BMP180;6505;51.114;13.128;2022-12-24T08:49:17;98956.00;;;16.10
12875;BMP180;6505;51.114;13.128;2022-12-24T08:51:46;98967.00;;;16.10
12875;BMP180;6505;51.114;13.128;2022-12-24T08:54:20;98969.00;;;16.10
12875;BMP180;6505;51.114;13.128;2022-12-24T08:56:56;98967.00;;;16.10
12875;BMP180;6505;51.114;13.128;2022-12-24T08:59:26;98972.00;;;16.10
12875;BMP180;6505;51.114;13.128;2022-12-24T09:01:54;98980.00;;;16.10
12875;BMP180;6505;51.114;13.128;2022-12-24T09:04:22;98981.00;;;16.10
12875;BMP180;6505;51.114;13.128;2022-12-24T09:06:50;98991.00;;;16.10
12875;BMP180;6505;51.114;13.128;2022-12-24T09:09:20;98997.00;;;16.10
12875;BMP180;6505;51.114;13.128;2022-12-24T09:11:49;98985.00;;;16.10
12875;BMP180;6505;51.114;13.128;2022-12-24T09:14:19;98983.00;;;16.10
12875;BMP180;6505;51.114;13.128;2022-12-24T09:16:50;98990.00;;;16.10
12875;BMP180;6505;51.114;13.128;2022-12-24T09:19:19;98990.00;;;16.10
12875;BMP180;6505;51.114;13.128;2022-12-24T09:21:47;98990.00;;;16.10
12875;BMP180;6505;51.114;13.128;2022-12-24T09:24:15;98998.00;;;16.10
12875;BMP180;6505;51.114;13.128;2022-12-24T09:26:47;98999.00;;;16.10
12875;BMP180;6505;51.114;13.128;2022-12-24T09:29:25;99003.00;;;16.10
12875;BMP180;6505;51.114;13.128;2022-12-24T09:31:54;98999.00;;;16.10
12875;BMP180;6505;51.114;13.128;2022-12-24T09:34:26;99008.00;;;16.10
12875;BMP180;6505;51.114;13.128;2022-12-24T09:36:56;99004.00;;;16.10
12875;BMP180;6505;51.114;13.128;2022-12-24T09:39:28;99003.00;;;16.10
12875;BMP180;6505;51.114;13.128;2022-12-24T09:42:29;99030.00;;;16.10
12875;BMP180;6505;51.114;13.128;2022-12-24T09:45:07;99030.00;;;16.10
12875;BMP180;6505;51.114;13.128;2022-12-24T09:47:48;99038.00;;;16.10
12875;BMP180;6505;51.114;13.128;2022-12-24T09:50:31;99041.00;;;16.10
12875;BMP180;6505;51.114;13.128;2022-12-24T09:53:19;99035.00;;;16.00
12875;BMP180;6505;51.114;13.128;2022-12-24T09:55:59;99034.00;;;16.10
12875;BMP180;6505;51.114;13.128;2022-12-24T09:58:37;99034.00;;;16.00
12875;BMP180;6505;51.114;13.128;2022-12-24T10:01:15;99038.00;;;16.00
12875;BMP180;6505;51.114;13.128;2022-12-24T10:03:46;99048.00;;;16.10
12875;BMP180;6505;51.114;13.128;2022-12-24T10:06:20;99050.00;;;16.10
12875;BMP180;6505;51.114;13.128;2022-12-24T10:09:12;99059.00;;;16.00
12875;BMP180;6505;51.114;13.128;2022-12-24T10:11:55;99055.00;;;16.00
12875;BMP180;6505;51.114;13.128;2022-12-24T10:14:53;99064.00;;;16.00
12875;BMP180;6505;51.114;13.128;2022-12-24T10:17:39;99059.00;;;16.00
12875;BMP180;6505;51.114;13.128;2022-12-24T10:20:44;99063.00;;;16.00
12875;BMP180;6505;51.114;13.128;2022-12-24T10:23:23;99059.00;;;16.00
12875;BMP180;6505;51.114;13.128;2022-12-24T10:26:05;99062.00;;;16.00
12875;BMP180;6505;51.114;13.128;2022-12-24T10:28:46;99069.00;;;16.00
12875;BMP180;6505;51.114;13.128;2022-12-24T10:31:18;99074.00;;;16.10
12875;BMP180;6505;51.114;13.128;2022-12-24T10:33:57;99075.00;;;16.10
12875;BMP180;6505;51.114;13.128;2022-12-24T10:36:30;99083.00;;;16.10
12875;BMP180;6505;51.114;13.128;2022-12-24T10:39:00;99092.00;;;16.10
12875;BMP180;6505;51.114;13.128;2022-12-24T10:41:34;99090.00;;;16.10
12875;BMP180;6505;51.114;13.128;2022-12-24T10:44:07;99094.00;;;16.10
12875;BMP180;6505;51.114;13.128;2022-12-24T10:46:46;99084.00;;;16.10
12875;BMP180;6505;51.114;13.128;2022-12-24T10:49:18;99090.00;;;16.10
12875;BMP180;6505;51.114;13.128;2022-12-24T10:51:52;99098.00;;;16.10
12875;BMP180;6505;51.114;13.128;2022-12-24T10:54:26;99099.00;;;16.10
12875;BMP180;6505;51.114;13.128;2022-12-24T10:57:01;99100.00;;;16.10
12875;BMP180;6505;51.114;13.128;2022-12-24T10:59:41;99110.00;;;16.10
12875;BMP180;6505;51.114;13.128;2022-12-24T11:02:30;99101.00;;;16.10
12875;BMP180;6505;51.114;13.128;2022-12-24T11:05:01;99093.00;;;16.20
12875;BMP180;6505;51.114;13.128;2022-12-24T11:07:31;99098.00;;;16.20
12875;BMP180;6505;51.114;13.128;2022-12-24T11:10:05;99100.00;;;16.10
12875;BMP180;6505;51.114;13.128;2022-12-24T11:12:47;99108.00;;;16.10
12875;BMP180;6505;51.114;13.128;2022-12-24T11:15:39;99114.00;;;16.20
12875;BMP180;6505;51.114;13.128;2022-12-24T11:18:15;99108.00;;;16.20
12875;BMP180;6505;51.114;13.128;2022-12-24T11:20:50;99116.00;;;16.20
12875;BMP180;6505;51.114;13.128;2022-12-24T11:23:19;99126.00;;;16.20
12875;BMP180;6505;51.114;13.128;2022-12-24T11:25:53;99128.00;;;16.20
12875;BMP180;6505;51.114;13.128;2022-12-24T11:28:29;99125.00;;;16.20
12875;BMP180;6505;51.114;13.128;2022-12-24T11:31:04;99131.00;;;16.20
12875;BMP180;6505;51.114;13.128;2022-12-24T11:33:47;99124.00;;;16.20
12875;BMP180;6505;51.114;13.128;2022-12-24T11:36:20;99131.00;;;16.20
12875;BMP180;6505;51.114;13.128;2022-12-24T11:38:53;99131.00;;;16.30
12875;BMP180;6505;51.114;13.128;2022-12-24T11:41:23;99138.00;;;16.30
12875;BMP180;6505;51.114;13.128;2022-12-24T11:44:01;99130.00;;;16.20
12875;BMP180;6505;51.114;13.128;2022-12-24T11:46:38;99140.00;;;16.30
12875;BMP180;6505;51.114;13.128;2022-12-24T11:49:22;99138.00;;;16.20
12875;BMP180;6505;51.114;13.128;2022-12-24T11:52:23;99152.00;;;16.20
12875;BMP180;6505;51.114;13.128;2022-12-24T11:55:19;99147.00;;;16.20
12875;BMP180;6505;51.114;13.128;2022-12-24T11:57:59;99148.00;;;16.20
12875;BMP180;6505;51.114;13.128;2022-12-24T12:00:31;99151.00;;;16.30
12875;BMP180;6505;51.114;13.128;2022-12-24T12:03:01;99141.00;;;16.30
12875;BMP180;6505;51.114;13.128;2022-12-24T12:05:35;99147.00;;;16.30
12875;BMP180;6505;51.114;13.128;2022-12-24T12:08:21;99145.00;;;16.30
12875;BMP180;6505;51.114;13.128;2022-12-24T12:10:52;99145.00;;;16.30
12875;BMP180;6505;51.114;13.128;2022-12-24T12:13:27;99152.00;;;16.30
12875;BMP180;6505;51.114;13.128;2022-12-24T12:16:15;99148.00;;;16.30
12875;BMP180;6505;51.114;13.128;2022-12-24T12:18:59;99143.00;;;16.30
12875;BMP180;6505;51.114;13.128;2022-12-24T12:21:40;99140.00;;;16.30
12875;BMP180;6505;51.114;13.128;2022-12-24T12:24:24;99143.00;;;16.30
12875;BMP180;6505;51.114;13.128;2022-12-24T12:27:11;99143.00;;;16.30
12875;BMP180;6505;51.114;13.128;2022-12-24T12:29:50;99147.00;;;16.30
12875;BMP180;6505;51.114;13.128;2022-12-24T12:32:30;99152.00;;;16.30
12875;BMP180;6505;51.114;13.128;2022-12-24T12:35:15;99155.00;;;16.30
12875;BMP180;6505;51.114;13.128;2022-12-24T12:37:56;99144.00;;;16.30
12875;BMP180;6505;51.114;13.128;2022-12-24T12:40:47;99163.00;;;16.30
12875;BMP180;6505;51.114;13.128;2022-12-24T12:44:04;99150.00;;;16.30
12875;BMP180;6505;51.114;13.128;2022-12-24T12:46:56;99150.00;;;16.30
12875;BMP180;6505;51.114;13.128;2022-12-24T12:49:38;99146.00;;;16.30
12875;BMP180;6505;51.114;13.128;2022-12-24T12:52:27;99152.00;;;16.30
12875;BMP180;6505;51.114;13.128;2022-12-24T12:55:26;99161.00;;;16.30
12875;BMP180;6505;51.114;13.128;2022-12-24T12:58:04;99147.00;;;16.30
12875;BMP180;6505;51.114;13.128;2022-12-24T13:00:46;99160.00;;;16.40
12875;BMP180;6505;51.114;13.128;2022-12-24T13:07:30;99160.00;;;16.30
12875;BMP180;6505;51.114;13.128;2022-12-24T13:10:40;99162.00;;;16.30
12875;BMP180;6505;51.114;13.128;2022-12-24T13:13:44;99159.00;;;16.30
12875;BMP180;6505;51.114;13.128;2022-12-24T13:16:51;99152.00;;;16.30
12875;BMP180;6505;51.114;13.128;2022-12-24T13:19:41;99160.00;;;16.30
12875;BMP180;6505;51.114;13.128;2022-12-24T13:22:15;99164.00;;;16.40
12875;BMP180;6505;51.114;13.128;2022-12-24T13:24:52;99170.00;;;16.40
12875;BMP180;6505;51.114;13.128;2022-12-24T13:27:27;99166.00;;;16.40
12875;BMP180;6505;51.114;13.128;2022-12-24T13:30:02;99152.00;;;16.40
12875;BMP180;6505;51.114;13.128;2022-12-24T13:32:50;99173.00;;;16.40
12875;BMP180;6505;51.114;13.128;2022-12-24T13:35:38;99173.00;;;16.40
12875;BMP180;6505;51.114;13.128;2022-12-24T13:38:47;99164.00;;;16.40
12875;BMP180;6505;51.114;13.128;2022-12-24T13:41:55;99181.00;;;16.40
12875;BMP180;6505;51.114;13.128;2022-12-24T13:44:28;99175.00;;;16.40
12875;BMP180;6505;51.114;13.128;2022-12-24T13:47:19;99189.00;;;16.40
12875;BMP180;6505;51.114;13.128;2022-12-24T13:50:16;99182.00;;;16.40
12875;BMP180;6505;51.114;13.128;2022-12-24T13:52:52;99187.00;;;16.50
12875;BMP180;6505;51.114;13.128;2022-12-24T13:55:21;99191.00;;;16.50
12875;BMP180;6505;51.114;13.128;2022-12-24T13:57:57;99193.00;;;16.50
12875;BMP180;6505;51.114;13.128;2022-12-24T14:00:39;99199.00;;;16.40
12875;BMP180;6505;51.114;13.128;2022-12-24T14:03:30;99202.00;;;16.50
12875;BMP180;6505;51.114;13.128;2022-12-24T14:06:06;99203.00;;;16.50
12875;BMP180;6505;51.114;13.128;2022-12-24T14:08:47;99201.00;;;16.50
12875;BMP180;6505;51.114;13.128;2022-12-24T14:11:20;99200.00;;;16.50
12875;BMP180;6505;51.114;13.128;2022-12-24T14:14:18;99215.00;;;16.50
12875;BMP180;6505;51.114;13.128;2022-12-24T14:16:56;99216.00;;;16.50
12875;BMP180;6505;51.114;13.128;2022-12-24T14:19:31;99223.00;;;16.50
12875;BMP180;6505;51.114;13.128;2022-12-24T14:22:29;99231.00;;;16.50
12875;BMP180;6505;51.114;13.128;2022-12-24T14:25:02;99228.00;;;16.50
12875;BMP180;6505;51.114;13.128;2022-12-24T14:27:38;99239.00;;;16.50
12875;BMP180;6505;51.114;13.128;2022-12-24T14:30:20;99234.00;;;16.50
12875;BMP180;6505;51.114;13.128;2022-12-24T14:32:53;99223.00;;;16.50
12875;BMP180;6505;51.114;13.128;2022-12-24T14:35:25;99233.00;;;16.50
12875;BMP180;6505;51.114;13.128;2022-12-24T14:38:00;99246.00;;;16.50
12875;BMP180;6505;51.114;13.128;2022-12-24T14:40:33;99247.00;;;16.50
12875;BMP180;6505;51.114;13.128;2022-12-24T14:43:17;99255.00;;;16.50
12875;BMP180;6505;51.114;13.128;2022-12-24T14:45:53;99254.00;;;16.50
12875;BMP180;6505;51.114;13.128;2022-12-24T14:48:41;99268.00;;;16.50
12875;BMP180;6505;51.114;13.128;2022-12-24T14:51:22;99268.00;;;16.50
12875;BMP180;6505;51.114;13.128;2022-12-24T14:54:18;99264.00;;;16.50
12875;BMP180;6505;51.114;13.128;2022-12-24T14:57:12;99264.00;;;16.50
12875;BMP180;6505;51.114;13.128;2022-12-24T14:59:47;99275.00;;;16.50
12875;BMP180;6505;51.114;13.128;2022-12-24T15:02:39;99272.00;;;16.50
12875;BMP180;6505;51.114;13.128;2022-12-24T15:05:16;99279.00;;;16.50